sensor_id;sensor_type;location;lat;lon;timestamp;temperature;humidity
6106;DHT22;3083;51.508;7.966;2024-02-15T00:00:20;11.10;99.90
6106;DHT22;3083;51.508;7.966;2024-02-15T00:02:49;11.10;99.90
6106;DHT22;3083;51.508;7.966;2024-02-15T00:05:16;11.10;99.90
6106;DHT22;3083;51.508;7.966;2024-02-15T00:07:43;11.10;99.90
6106;DHT22;3083;51.508;7.966;2024-02-15T00:10:12;11.10;99.90
6106;DHT22;3083;51.508;7.966;2024-02-15T00:12:39;11.10;99.90
6106;DHT22;3083;51.508;7.966;2024-02-15T00:15:07;11.10;99.90
6106;DHT22;3083;51.508;7.966;2024-02-15T00:17:34;11.10;99.90
6106;DHT22;3083;51.508;7.966;2024-02-15T00:20:03;11.00;99.90
6106;DHT22;3083;51.508;7.966;2024-02-15T00:22:35;11.00;99.90
6106;DHT22;3083;51.508;7.966;2024-02-15T00:25:02;11.10;99.90
6106;DHT22;3083;51.508;7.966;2024-02-15T00:27:30;11.00;99.90
6106;DHT22;3083;51.508;7.966;2024-02-15T00:29:58;11.00;99.90
6106;DHT22;3083;51.508;7.966;2024-02-15T00:32:25;11.10;99.90
6106;DHT22;3083;51.508;7.966;2024-02-15T00:34:52;11.10;99.90
6106;DHT22;3083;51.508;7.966;2024-02-15T00:37:20;11.10;99.90
6106;DHT22;3083;51.508;7.966;2024-02-15T00:39:47;11.10;99.90
6106;DHT22;3083;51.508;7.966;2024-02-15T00:42:14;11.10;99.90
6106;DHT22;3083;51.508;7.966;2024-02-15T00:44:41;11.00;99.90
6106;DHT22;3083;51.508;7.966;2024-02-15T00:47:09;11.10;99.90
6106;DHT22;3083;51.508;7.966;2024-02-15T00:49:37;11.10;99.90
6106;DHT22;3083;51.508;7.966;2024-02-15T00:52:05;11.00;99.90
6106;DHT22;3083;51.508;7.966;2024-02-15T00:54:34;11.00;99.90
6106;DHT22;3083;51.508;7.966;2024-02-15T00:57:00;11.00;99.90
6106;DHT22;3083;51.508;7.966;2024-02-15T00:59:27;11.00;99.90
6106;DHT22;3083;51.508;7.966;2024-02-15T01:01:54;11.00;99.90
6106;DHT22;3083;51.508;7.966;2024-02-15T01:04:21;11.10;99.90
6106;DHT22;3083;51.508;7.966;2024-02-15T01:06:48;11.10;99.90
6106;DHT22;3083;51.508;7.966;2024-02-15T01:09:15;11.10;99.90
6106;DHT22;3083;51.508;7.966;2024-02-15T01:11:43;11.10;99.90
6106;DHT22;3083;51.508;7.966;2024-02-15T01:14:10;11.00;99.90
6106;DHT22;3083;51.508;7.966;2024-02-15T01:16:37;11.10;99.90
6106;DHT22;3083;51.508;7.966;2024-02-15T01:19:03;11.00;99.90
6106;DHT22;3083;51.508;7.966;2024-02-15T01:21:31;11.10;99.90
6106;DHT22;3083;51.508;7.966;2024-02-15T01:23:58;11.10;99.90
6106;DHT22;3083;51.508;7.966;2024-02-15T01:26:26;11.10;99.90
6106;DHT22;3083;51.508;7.966;2024-02-15T01:28:54;11.10;99.90
6106;DHT22;3083;51.508;7.966;2024-02-15T01:31:21;11.10;99.90
6106;DHT22;3083;51.508;7.966;2024-02-15T01:33:48;11.10;99.90
6106;DHT22;3083;51.508;7.966;2024-02-15T01:36:15;11.00;99.90
6106;DHT22;3083;51.508;7.966;2024-02-15T01:38:43;11.10;99.90
6106;DHT22;3083;51.508;7.966;2024-02-15T01:41:10;11.10;99.90
6106;DHT22;3083;51.508;7.966;2024-02-15T01:43:37;11.10;99.90
6106;DHT22;3083;51.508;7.966;2024-02-15T01:46:08;11.10;99.90
6106;DHT22;3083;51.508;7.966;2024-02-15T01:48:36;11.10;99.90
6106;DHT22;3083;51.508;7.966;2024-02-15T01:51:04;11.10;99.90
6106;DHT22;3083;51.508;7.966;2024-02-15T01:53:31;11.10;99.90
6106;DHT22;3083;51.508;7.966;2024-02-15T01:55:58;11.10;99.90
6106;DHT22;3083;51.508;7.966;2024-02-15T01:58:27;11.10;99.90
6106;DHT22;3083;51.508;7.966;2024-02-15T02:00:56;11.10;99.90
6106;DHT22;3083;51.508;7.966;2024-02-15T02:03:24;11.10;99.90
6106;DHT22;3083;51.508;7.966;2024-02-15T02:05:51;11.10;99.90
6106;DHT22;3083;51.508;7.966;2024-02-15T02:08:18;11.10;99.90
6106;DHT22;3083;51.508;7.966;2024-02-15T02:10:45;11.10;99.90
6106;DHT22;3083;51.508;7.966;2024-02-15T02:13:12;11.10;99.90
6106;DHT22;3083;51.508;7.966;2024-02-15T02:15:39;11.10;99.90
6106;DHT22;3083;51.508;7.966;2024-02-15T02:18:06;11.10;99.90
6106;DHT22;3083;51.508;7.966;2024-02-15T02:20:35;11.10;99.90
6106;DHT22;3083;51.508;7.966;2024-02-15T02:23:06;11.10;99.90
6106;DHT22;3083;51.508;7.966;2024-02-15T02:25:35;11.20;99.90
6106;DHT22;3083;51.508;7.966;2024-02-15T02:28:02;11.20;99.90
6106;DHT22;3083;51.508;7.966;2024-02-15T02:30:29;11.20;99.90
6106;DHT22;3083;51.508;7.966;2024-02-15T02:32:56;11.20;99.90
6106;DHT22;3083;51.508;7.966;2024-02-15T02:35:24;11.20;99.90
6106;DHT22;3083;51.508;7.966;2024-02-15T02:37:51;11.20;99.90
6106;DHT22;3083;51.508;7.966;2024-02-15T02:40:19;11.20;99.90
6106;DHT22;3083;51.508;7.966;2024-02-15T02:42:51;11.20;99.90
6106;DHT22;3083;51.508;7.966;2024-02-15T02:45:19;11.20;99.90
6106;DHT22;3083;51.508;7.966;2024-02-15T02:47:48;11.20;99.90
6106;DHT22;3083;51.508;7.966;2024-02-15T02:50:15;11.20;99.90
6106;DHT22;3083;51.508;7.966;2024-02-15T02:52:43;11.20;99.90
6106;DHT22;3083;51.508;7.966;2024-02-15T02:55:10;11.20;99.90
6106;DHT22;3083;51.508;7.966;2024-02-15T02:57:37;11.20;99.90
6106;DHT22;3083;51.508;7.966;2024-02-15T03:00:07;11.20;99.90
6106;DHT22;3083;51.508;7.966;2024-02-15T03:02:38;11.20;99.90
6106;DHT22;3083;51.508;7.966;2024-02-15T03:05:05;11.20;99.90
6106;DHT22;3083;51.508;7.966;2024-02-15T03:07:34;11.20;99.90
6106;DHT22;3083;51.508;7.966;2024-02-15T03:10:02;11.20;99.90
6106;DHT22;3083;51.508;7.966;2024-02-15T03:12:30;11.20;99.90
6106;DHT22;3083;51.508;7.966;2024-02-15T03:14:56;11.20;99.90
6106;DHT22;3083;51.508;7.966;2024-02-15T03:17:25;11.20;99.90
6106;DHT22;3083;51.508;7.966;2024-02-15T03:19:52;11.20;99.90
6106;DHT22;3083;51.508;7.966;2024-02-15T03:22:19;11.10;99.90
6106;DHT22;3083;51.508;7.966;2024-02-15T03:24:46;11.20;99.90
6106;DHT22;3083;51.508;7.966;2024-02-15T03:27:12;11.10;99.90
6106;DHT22;3083;51.508;7.966;2024-02-15T03:29:40;11.20;99.90
6106;DHT22;3083;51.508;7.966;2024-02-15T03:32:07;11.10;99.90
6106;DHT22;3083;51.508;7.966;2024-02-15T03:34:37;11.10;99.90
6106;DHT22;3083;51.508;7.966;2024-02-15T03:37:05;11.10;99.90
6106;DHT22;3083;51.508;7.966;2024-02-15T03:39:32;11.00;99.90
6106;DHT22;3083;51.508;7.966;2024-02-15T03:41:59;11.00;99.90
6106;DHT22;3083;51.508;7.966;2024-02-15T03:44:26;11.00;99.90
6106;DHT22;3083;51.508;7.966;2024-02-15T03:46:53;11.00;99.90
6106;DHT22;3083;51.508;7.966;2024-02-15T03:49:20;11.00;99.90
6106;DHT22;3083;51.508;7.966;2024-02-15T03:51:49;10.90;99.90
6106;DHT22;3083;51.508;7.966;2024-02-15T03:54:16;10.90;99.90
6106;DHT22;3083;51.508;7.966;2024-02-15T03:56:47;10.90;99.90
6106;DHT22;3083;51.508;7.966;2024-02-15T03:59:18;10.90;99.90
6106;DHT22;3083;51.508;7.966;2024-02-15T04:01:50;10.90;99.90
6106;DHT22;3083;51.508;7.966;2024-02-15T04:04:17;10.90;99.90
6106;DHT22;3083;51.508;7.966;2024-02-15T04:06:46;10.90;99.90
6106;DHT22;3083;51.508;7.966;2024-02-15T04:09:14;10.90;99.90
6106;DHT22;3083;51.508;7.966;2024-02-15T04:11:42;10.90;99.90
6106;DHT22;3083;51.508;7.966;2024-02-15T04:14:10;10.90;99.90
6106;DHT22;3083;51.508;7.966;2024-02-15T04:16:36;10.90;99.90
6106;DHT22;3083;51.508;7.966;2024-02-15T04:19:03;10.90;99.90
6106;DHT22;3083;51.508;7.966;2024-02-15T04:21:30;10.90;99.90
6106;DHT22;3083;51.508;7.966;2024-02-15T04:23:57;10.80;99.90
6106;DHT22;3083;51.508;7.966;2024-02-15T04:26:26;10.80;99.90
6106;DHT22;3083;51.508;7.966;2024-02-15T04:28:55;10.80;99.90
6106;DHT22;3083;51.508;7.966;2024-02-15T04:31:22;10.70;99.90
6106;DHT22;3083;51.508;7.966;2024-02-15T04:33:52;10.70;99.90
6106;DHT22;3083;51.508;7.966;2024-02-15T04:36:19;10.60;99.90
6106;DHT22;3083;51.508;7.966;2024-02-15T04:38:49;10.60;99.90
6106;DHT22;3083;51.508;7.966;2024-02-15T04:41:16;10.50;99.90
6106;DHT22;3083;51.508;7.966;2024-02-15T04:43:47;10.50;99.90
6106;DHT22;3083;51.508;7.966;2024-02-15T04:46:14;10.40;99.90
6106;DHT22;3083;51.508;7.966;2024-02-15T04:48:42;10.50;99.90
6106;DHT22;3083;51.508;7.966;2024-02-15T04:51:09;10.40;99.90
6106;DHT22;3083;51.508;7.966;2024-02-15T04:53:37;10.40;99.90
6106;DHT22;3083;51.508;7.966;2024-02-15T04:56:05;10.40;99.90
6106;DHT22;3083;51.508;7.966;2024-02-15T04:58:39;10.50;99.90
6106;DHT22;3083;51.508;7.966;2024-02-15T05:01:13;10.50;99.90
6106;DHT22;3083;51.508;7.966;2024-02-15T05:03:40;10.50;99.90
6106;DHT22;3083;51.508;7.966;2024-02-15T05:06:07;10.60;99.90
6106;DHT22;3083;51.508;7.966;2024-02-15T05:08:35;10.60;99.90
6106;DHT22;3083;51.508;7.966;2024-02-15T05:11:04;10.60;99.90
6106;DHT22;3083;51.508;7.966;2024-02-15T05:13:32;10.70;99.90
6106;DHT22;3083;51.508;7.966;2024-02-15T05:15:59;10.70;99.90
6106;DHT22;3083;51.508;7.966;2024-02-15T05:18:27;10.70;99.90
6106;DHT22;3083;51.508;7.966;2024-02-15T05:20:56;10.70;99.90
6106;DHT22;3083;51.508;7.966;2024-02-15T05:23:24;10.70;99.90
6106;DHT22;3083;51.508;7.966;2024-02-15T05:25:51;10.70;99.90
6106;DHT22;3083;51.508;7.966;2024-02-15T05:28:19;10.80;99.90
6106;DHT22;3083;51.508;7.966;2024-02-15T05:31:08;10.80;99.90
6106;DHT22;3083;51.508;7.966;2024-02-15T05:33:37;10.80;99.90
6106;DHT22;3083;51.508;7.966;2024-02-15T05:36:06;10.80;99.90
6106;DHT22;3083;51.508;7.966;2024-02-15T05:38:34;10.90;99.90
6106;DHT22;3083;51.508;7.966;2024-02-15T05:41:02;10.90;99.90
6106;DHT22;3083;51.508;7.966;2024-02-15T05:43:29;10.90;99.90
6106;DHT22;3083;51.508;7.966;2024-02-15T05:45:56;10.90;99.90
6106;DHT22;3083;51.508;7.966;2024-02-15T05:48:23;10.90;99.90
6106;DHT22;3083;51.508;7.966;2024-02-15T05:50:51;10.90;99.90
6106;DHT22;3083;51.508;7.966;2024-02-15T05:53:19;10.90;99.90
6106;DHT22;3083;51.508;7.966;2024-02-15T05:55:47;11.00;99.90
6106;DHT22;3083;51.508;7.966;2024-02-15T05:58:15;11.00;99.90
6106;DHT22;3083;51.508;7.966;2024-02-15T06:00:42;11.00;99.90
6106;DHT22;3083;51.508;7.966;2024-02-15T06:03:10;11.00;99.90
6106;DHT22;3083;51.508;7.966;2024-02-15T06:05:38;11.00;99.90
6106;DHT22;3083;51.508;7.966;2024-02-15T06:08:06;10.90;99.90
6106;DHT22;3083;51.508;7.966;2024-02-15T06:10:33;10.90;99.90
6106;DHT22;3083;51.508;7.966;2024-02-15T06:13:00;10.90;99.90
6106;DHT22;3083;51.508;7.966;2024-02-15T06:15:27;11.00;99.90
6106;DHT22;3083;51.508;7.966;2024-02-15T06:17:54;11.00;99.90
6106;DHT22;3083;51.508;7.966;2024-02-15T06:20:20;11.00;99.90
6106;DHT22;3083;51.508;7.966;2024-02-15T06:22:48;11.00;99.90
6106;DHT22;3083;51.508;7.966;2024-02-15T06:25:18;11.00;99.90
6106;DHT22;3083;51.508;7.966;2024-02-15T06:27:46;11.00;99.90
6106;DHT22;3083;51.508;7.966;2024-02-15T06:30:14;11.00;99.90
6106;DHT22;3083;51.508;7.966;2024-02-15T06:33:07;11.10;99.90
6106;DHT22;3083;51.508;7.966;2024-02-15T06:36:04;11.10;99.90
6106;DHT22;3083;51.508;7.966;2024-02-15T06:38:49;11.10;99.90
6106;DHT22;3083;51.508;7.966;2024-02-15T06:41:34;11.10;99.90
6106;DHT22;3083;51.508;7.966;2024-02-15T06:44:01;11.10;99.90
6106;DHT22;3083;51.508;7.966;2024-02-15T06:46:28;11.20;99.90
6106;DHT22;3083;51.508;7.966;2024-02-15T06:48:55;11.10;99.90
6106;DHT22;3083;51.508;7.966;2024-02-15T06:51:23;11.10;99.90
6106;DHT22;3083;51.508;7.966;2024-02-15T06:53:50;11.10;99.90
6106;DHT22;3083;51.508;7.966;2024-02-15T06:56:21;11.10;99.90
6106;DHT22;3083;51.508;7.966;2024-02-15T06:58:49;11.20;99.90
6106;DHT22;3083;51.508;7.966;2024-02-15T07:01:16;11.10;99.90
6106;DHT22;3083;51.508;7.966;2024-02-15T07:03:44;11.20;99.90
6106;DHT22;3083;51.508;7.966;2024-02-15T07:06:11;11.20;99.90
6106;DHT22;3083;51.508;7.966;2024-02-15T07:08:39;11.20;99.90
6106;DHT22;3083;51.508;7.966;2024-02-15T07:11:06;11.20;99.90
6106;DHT22;3083;51.508;7.966;2024-02-15T07:13:35;11.20;99.90
6106;DHT22;3083;51.508;7.966;2024-02-15T07:16:07;11.20;99.90
6106;DHT22;3083;51.508;7.966;2024-02-15T07:18:33;11.20;99.90
6106;DHT22;3083;51.508;7.966;2024-02-15T07:21:00;11.20;99.90
6106;DHT22;3083;51.508;7.966;2024-02-15T07:23:29;11.30;99.90
6106;DHT22;3083;51.508;7.966;2024-02-15T07:25:56;11.30;99.90
6106;DHT22;3083;51.508;7.966;2024-02-15T07:28:23;11.30;99.90
6106;DHT22;3083;51.508;7.966;2024-02-15T07:30:52;11.30;99.90
6106;DHT22;3083;51.508;7.966;2024-02-15T07:33:21;11.30;99.90
6106;DHT22;3083;51.508;7.966;2024-02-15T07:35:48;11.30;99.90
6106;DHT22;3083;51.508;7.966;2024-02-15T07:38:16;11.30;99.90
6106;DHT22;3083;51.508;7.966;2024-02-15T07:40:43;11.30;99.90
6106;DHT22;3083;51.508;7.966;2024-02-15T07:43:10;11.30;99.90
6106;DHT22;3083;51.508;7.966;2024-02-15T07:45:37;11.30;99.90
6106;DHT22;3083;51.508;7.966;2024-02-15T07:48:04;11.30;99.90
6106;DHT22;3083;51.508;7.966;2024-02-15T07:50:32;11.30;99.90
6106;DHT22;3083;51.508;7.966;2024-02-15T07:53:02;11.30;99.90
6106;DHT22;3083;51.508;7.966;2024-02-15T07:55:31;11.30;99.90
6106;DHT22;3083;51.508;7.966;2024-02-15T07:57:57;11.30;99.90
6106;DHT22;3083;51.508;7.966;2024-02-15T08:00:25;11.40;99.90
6106;DHT22;3083;51.508;7.966;2024-02-15T08:02:53;11.40;99.90
6106;DHT22;3083;51.508;7.966;2024-02-15T08:05:20;11.40;99.90
6106;DHT22;3083;51.508;7.966;2024-02-15T08:07:49;11.40;99.90
6106;DHT22;3083;51.508;7.966;2024-02-15T08:10:16;11.40;99.90
6106;DHT22;3083;51.508;7.966;2024-02-15T08:12:44;11.40;99.90
6106;DHT22;3083;51.508;7.966;2024-02-15T08:15:12;11.40;99.90
6106;DHT22;3083;51.508;7.966;2024-02-15T08:17:40;11.40;99.90
6106;DHT22;3083;51.508;7.966;2024-02-15T08:20:09;11.50;99.90
6106;DHT22;3083;51.508;7.966;2024-02-15T08:22:36;11.50;99.90
6106;DHT22;3083;51.508;7.966;2024-02-15T08:25:07;11.50;99.90
6106;DHT22;3083;51.508;7.966;2024-02-15T08:27:36;11.50;99.90
6106;DHT22;3083;51.508;7.966;2024-02-15T08:30:07;11.50;99.90
6106;DHT22;3083;51.508;7.966;2024-02-15T08:32:35;11.50;99.90
6106;DHT22;3083;51.508;7.966;2024-02-15T08:35:02;11.50;99.90
6106;DHT22;3083;51.508;7.966;2024-02-15T08:37:31;11.50;99.90
6106;DHT22;3083;51.508;7.966;2024-02-15T08:39:59;11.60;99.90
6106;DHT22;3083;51.508;7.966;2024-02-15T08:42:27;11.60;99.90
6106;DHT22;3083;51.508;7.966;2024-02-15T08:44:54;11.60;99.90
6106;DHT22;3083;51.508;7.966;2024-02-15T08:47:21;11.60;99.90
6106;DHT22;3083;51.508;7.966;2024-02-15T08:49:48;11.70;99.90
6106;DHT22;3083;51.508;7.966;2024-02-15T08:52:15;11.70;99.90
6106;DHT22;3083;51.508;7.966;2024-02-15T08:54:44;11.70;99.90
6106;DHT22;3083;51.508;7.966;2024-02-15T08:57:10;11.80;99.90
6106;DHT22;3083;51.508;7.966;2024-02-15T08:59:40;11.80;99.90
6106;DHT22;3083;51.508;7.966;2024-02-15T09:02:08;11.90;99.90
6106;DHT22;3083;51.508;7.966;2024-02-15T09:04:35;11.90;99.90
6106;DHT22;3083;51.508;7.966;2024-02-15T09:07:02;11.90;99.90
6106;DHT22;3083;51.508;7.966;2024-02-15T09:09:30;12.00;99.90
6106;DHT22;3083;51.508;7.966;2024-02-15T09:12:01;12.00;99.90
6106;DHT22;3083;51.508;7.966;2024-02-15T09:14:30;12.00;99.90
6106;DHT22;3083;51.508;7.966;2024-02-15T09:16:58;12.10;99.90
6106;DHT22;3083;51.508;7.966;2024-02-15T09:19:25;12.20;99.90
6106;DHT22;3083;51.508;7.966;2024-02-15T09:21:52;12.30;99.90
6106;DHT22;3083;51.508;7.966;2024-02-15T09:24:19;12.40;99.90
6106;DHT22;3083;51.508;7.966;2024-02-15T09:26:47;12.50;99.90
6106;DHT22;3083;51.508;7.966;2024-02-15T09:29:14;12.50;99.90
6106;DHT22;3083;51.508;7.966;2024-02-15T09:31:41;12.50;99.90
6106;DHT22;3083;51.508;7.966;2024-02-15T09:34:10;12.60;99.90
6106;DHT22;3083;51.508;7.966;2024-02-15T09:36:39;12.60;99.90
6106;DHT22;3083;51.508;7.966;2024-02-15T09:39:08;12.50;99.90
6106;DHT22;3083;51.508;7.966;2024-02-15T09:41:39;12.50;99.90
6106;DHT22;3083;51.508;7.966;2024-02-15T09:44:08;12.50;99.90
6106;DHT22;3083;51.508;7.966;2024-02-15T09:46:36;12.50;99.90
6106;DHT22;3083;51.508;7.966;2024-02-15T09:49:11;12.60;99.90
6106;DHT22;3083;51.508;7.966;2024-02-15T09:51:40;12.60;99.90
6106;DHT22;3083;51.508;7.966;2024-02-15T09:54:08;12.60;99.90
6106;DHT22;3083;51.508;7.966;2024-02-15T09:56:35;12.60;99.90
6106;DHT22;3083;51.508;7.966;2024-02-15T09:59:03;12.60;99.90
6106;DHT22;3083;51.508;7.966;2024-02-15T10:01:31;12.60;99.90
6106;DHT22;3083;51.508;7.966;2024-02-15T10:03:59;12.60;99.90
6106;DHT22;3083;51.508;7.966;2024-02-15T10:06:29;12.60;99.90
6106;DHT22;3083;51.508;7.966;2024-02-15T10:09:23;12.60;99.90
6106;DHT22;3083;51.508;7.966;2024-02-15T10:11:54;12.60;99.90
6106;DHT22;3083;51.508;7.966;2024-02-15T10:14:22;12.60;99.90
6106;DHT22;3083;51.508;7.966;2024-02-15T10:16:48;12.60;99.90
6106;DHT22;3083;51.508;7.966;2024-02-15T10:19:15;12.60;99.90
6106;DHT22;3083;51.508;7.966;2024-02-15T10:21:45;12.70;99.90
6106;DHT22;3083;51.508;7.966;2024-02-15T10:24:12;12.70;99.90
6106;DHT22;3083;51.508;7.966;2024-02-15T10:26:39;12.70;99.90
6106;DHT22;3083;51.508;7.966;2024-02-15T10:29:07;12.70;99.90
6106;DHT22;3083;51.508;7.966;2024-02-15T10:31:36;12.70;99.90
6106;DHT22;3083;51.508;7.966;2024-02-15T10:34:04;12.70;99.90
6106;DHT22;3083;51.508;7.966;2024-02-15T10:36:32;12.70;99.90
6106;DHT22;3083;51.508;7.966;2024-02-15T10:39:13;12.80;99.90
6106;DHT22;3083;51.508;7.966;2024-02-15T10:41:44;12.80;99.90
6106;DHT22;3083;51.508;7.966;2024-02-15T10:44:15;12.90;99.90
6106;DHT22;3083;51.508;7.966;2024-02-15T10:46:43;12.90;99.90
6106;DHT22;3083;51.508;7.966;2024-02-15T10:49:11;13.00;99.90
6106;DHT22;3083;51.508;7.966;2024-02-15T10:51:42;13.00;99.90
6106;DHT22;3083;51.508;7.966;2024-02-15T10:54:15;13.10;99.90
6106;DHT22;3083;51.508;7.966;2024-02-15T10:56:43;13.20;99.90
6106;DHT22;3083;51.508;7.966;2024-02-15T10:59:16;13.40;99.90
6106;DHT22;3083;51.508;7.966;2024-02-15T11:01:45;13.50;99.90
6106;DHT22;3083;51.508;7.966;2024-02-15T11:04:15;13.60;99.90
6106;DHT22;3083;51.508;7.966;2024-02-15T11:06:43;13.60;99.90
6106;DHT22;3083;51.508;7.966;2024-02-15T11:09:11;13.60;99.90
6106;DHT22;3083;51.508;7.966;2024-02-15T11:11:41;13.50;99.90
6106;DHT22;3083;51.508;7.966;2024-02-15T11:14:29;13.50;99.90
6106;DHT22;3083;51.508;7.966;2024-02-15T11:16:57;13.50;99.90
6106;DHT22;3083;51.508;7.966;2024-02-15T11:19:44;13.40;99.90
6106;DHT22;3083;51.508;7.966;2024-02-15T11:22:13;13.40;99.90
6106;DHT22;3083;51.508;7.966;2024-02-15T11:24:48;13.40;99.90
6106;DHT22;3083;51.508;7.966;2024-02-15T11:27:26;13.30;99.90
6106;DHT22;3083;51.508;7.966;2024-02-15T11:29:54;13.30;99.90
6106;DHT22;3083;51.508;7.966;2024-02-15T11:32:37;13.30;99.90
6106;DHT22;3083;51.508;7.966;2024-02-15T11:35:05;13.30;99.90
6106;DHT22;3083;51.508;7.966;2024-02-15T11:37:57;13.30;99.90
6106;DHT22;3083;51.508;7.966;2024-02-15T11:41:01;13.30;99.90
6106;DHT22;3083;51.508;7.966;2024-02-15T11:43:50;13.40;99.90
6106;DHT22;3083;51.508;7.966;2024-02-15T11:46:22;13.40;99.90
6106;DHT22;3083;51.508;7.966;2024-02-15T11:48:51;13.50;99.90
6106;DHT22;3083;51.508;7.966;2024-02-15T11:51:31;13.60;99.90
6106;DHT22;3083;51.508;7.966;2024-02-15T11:54:03;13.60;99.90
6106;DHT22;3083;51.508;7.966;2024-02-15T11:56:54;13.70;99.90
6106;DHT22;3083;51.508;7.966;2024-02-15T11:59:43;13.80;99.90
6106;DHT22;3083;51.508;7.966;2024-02-15T12:02:38;13.90;99.90
6106;DHT22;3083;51.508;7.966;2024-02-15T12:05:22;13.90;99.90
6106;DHT22;3083;51.508;7.966;2024-02-15T12:08:07;13.90;99.90
6106;DHT22;3083;51.508;7.966;2024-02-15T12:10:57;13.90;99.90
6106;DHT22;3083;51.508;7.966;2024-02-15T12:13:41;13.90;99.90
6106;DHT22;3083;51.508;7.966;2024-02-15T12:16:27;13.90;99.90
6106;DHT22;3083;51.508;7.966;2024-02-15T12:19:11;14.00;99.90
6106;DHT22;3083;51.508;7.966;2024-02-15T12:21:38;14.00;99.90
6106;DHT22;3083;51.508;7.966;2024-02-15T12:24:07;14.00;99.90
6106;DHT22;3083;51.508;7.966;2024-02-15T12:26:34;14.10;99.90
6106;DHT22;3083;51.508;7.966;2024-02-15T12:29:01;14.10;99.90
6106;DHT22;3083;51.508;7.966;2024-02-15T12:31:29;14.00;99.90
6106;DHT22;3083;51.508;7.966;2024-02-15T12:34:00;14.10;99.90
6106;DHT22;3083;51.508;7.966;2024-02-15T12:36:28;14.10;99.90
6106;DHT22;3083;51.508;7.966;2024-02-15T12:39:01;14.00;99.90
6106;DHT22;3083;51.508;7.966;2024-02-15T12:41:29;14.00;99.90
6106;DHT22;3083;51.508;7.966;2024-02-15T12:43:56;14.10;99.90
6106;DHT22;3083;51.508;7.966;2024-02-15T12:46:23;14.10;99.90
6106;DHT22;3083;51.508;7.966;2024-02-15T12:49:08;14.10;99.90
6106;DHT22;3083;51.508;7.966;2024-02-15T12:51:38;14.10;99.90
6106;DHT22;3083;51.508;7.966;2024-02-15T12:54:08;14.20;99.90
6106;DHT22;3083;51.508;7.966;2024-02-15T12:56:36;14.20;99.90
6106;DHT22;3083;51.508;7.966;2024-02-15T12:59:05;14.20;99.90
6106;DHT22;3083;51.508;7.966;2024-02-15T13:01:32;14.30;99.90
6106;DHT22;3083;51.508;7.966;2024-02-15T13:03:59;14.30;99.90
6106;DHT22;3083;51.508;7.966;2024-02-15T13:06:31;14.40;99.90
6106;DHT22;3083;51.508;7.966;2024-02-15T13:09:00;14.50;99.90
6106;DHT22;3083;51.508;7.966;2024-02-15T13:11:29;14.60;99.90
6106;DHT22;3083;51.508;7.966;2024-02-15T13:13:56;14.60;99.90
6106;DHT22;3083;51.508;7.966;2024-02-15T13:16:22;14.70;99.90
6106;DHT22;3083;51.508;7.966;2024-02-15T13:18:49;14.70;99.90
6106;DHT22;3083;51.508;7.966;2024-02-15T13:21:17;14.70;99.90
6106;DHT22;3083;51.508;7.966;2024-02-15T13:23:45;14.70;99.90
6106;DHT22;3083;51.508;7.966;2024-02-15T13:26:13;14.80;99.90
6106;DHT22;3083;51.508;7.966;2024-02-15T13:28:40;14.80;99.90
6106;DHT22;3083;51.508;7.966;2024-02-15T13:31:07;14.70;99.90
6106;DHT22;3083;51.508;7.966;2024-02-15T13:33:38;14.80;99.90
6106;DHT22;3083;51.508;7.966;2024-02-15T13:36:05;14.80;99.90
6106;DHT22;3083;51.508;7.966;2024-02-15T13:38:36;14.80;99.90
6106;DHT22;3083;51.508;7.966;2024-02-15T13:41:04;14.80;99.90
6106;DHT22;3083;51.508;7.966;2024-02-15T13:43:31;14.90;99.90
6106;DHT22;3083;51.508;7.966;2024-02-15T13:45:59;14.90;99.90
6106;DHT22;3083;51.508;7.966;2024-02-15T13:48:29;14.90;99.90
6106;DHT22;3083;51.508;7.966;2024-02-15T13:50:57;15.00;99.90
6106;DHT22;3083;51.508;7.966;2024-02-15T13:53:24;15.00;99.90
6106;DHT22;3083;51.508;7.966;2024-02-15T13:55:51;15.00;99.90
6106;DHT22;3083;51.508;7.966;2024-02-15T13:58:19;14.90;99.90
6106;DHT22;3083;51.508;7.966;2024-02-15T14:00:46;14.90;99.90
6106;DHT22;3083;51.508;7.966;2024-02-15T14:03:14;14.90;99.90
6106;DHT22;3083;51.508;7.966;2024-02-15T14:05:41;14.90;99.90
6106;DHT22;3083;51.508;7.966;2024-02-15T14:08:08;14.80;99.90
6106;DHT22;3083;51.508;7.966;2024-02-15T14:10:36;14.80;99.90
6106;DHT22;3083;51.508;7.966;2024-02-15T14:13:04;14.80;99.90
6106;DHT22;3083;51.508;7.966;2024-02-15T14:15:33;14.70;99.90
6106;DHT22;3083;51.508;7.966;2024-02-15T14:18:03;14.70;99.90
6106;DHT22;3083;51.508;7.966;2024-02-15T14:20:29;14.70;99.90
6106;DHT22;3083;51.508;7.966;2024-02-15T14:22:56;14.70;99.90
6106;DHT22;3083;51.508;7.966;2024-02-15T14:25:24;14.60;99.90
6106;DHT22;3083;51.508;7.966;2024-02-15T14:27:51;14.60;99.90
6106;DHT22;3083;51.508;7.966;2024-02-15T14:30:19;14.60;99.90
6106;DHT22;3083;51.508;7.966;2024-02-15T14:33:04;14.50;99.90
6106;DHT22;3083;51.508;7.966;2024-02-15T14:35:34;14.50;99.90
6106;DHT22;3083;51.508;7.966;2024-02-15T14:38:03;14.50;99.90
6106;DHT22;3083;51.508;7.966;2024-02-15T14:40:33;14.50;99.90
6106;DHT22;3083;51.508;7.966;2024-02-15T14:43:00;14.50;99.90
6106;DHT22;3083;51.508;7.966;2024-02-15T14:45:27;14.50;99.90
6106;DHT22;3083;51.508;7.966;2024-02-15T14:47:54;14.40;99.90
6106;DHT22;3083;51.508;7.966;2024-02-15T14:50:22;14.40;99.90
6106;DHT22;3083;51.508;7.966;2024-02-15T14:52:51;14.40;99.90
6106;DHT22;3083;51.508;7.966;2024-02-15T14:55:19;14.40;99.90
6106;DHT22;3083;51.508;7.966;2024-02-15T14:57:46;14.30;99.90
6106;DHT22;3083;51.508;7.966;2024-02-15T15:00:13;14.30;99.90
6106;DHT22;3083;51.508;7.966;2024-02-15T15:02:42;14.40;99.90
6106;DHT22;3083;51.508;7.966;2024-02-15T15:05:10;14.30;99.90
6106;DHT22;3083;51.508;7.966;2024-02-15T15:07:55;14.30;99.90
6106;DHT22;3083;51.508;7.966;2024-02-15T15:10:39;14.30;99.90
6106;DHT22;3083;51.508;7.966;2024-02-15T15:13:24;14.30;99.90
6106;DHT22;3083;51.508;7.966;2024-02-15T15:15:51;14.30;99.90
6106;DHT22;3083;51.508;7.966;2024-02-15T15:18:18;14.20;99.90
6106;DHT22;3083;51.508;7.966;2024-02-15T15:20:45;14.30;99.90
6106;DHT22;3083;51.508;7.966;2024-02-15T15:23:13;14.20;99.90
6106;DHT22;3083;51.508;7.966;2024-02-15T15:25:41;14.20;99.90
6106;DHT22;3083;51.508;7.966;2024-02-15T15:28:08;14.10;99.90
6106;DHT22;3083;51.508;7.966;2024-02-15T15:30:35;14.10;99.90
6106;DHT22;3083;51.508;7.966;2024-02-15T15:33:04;14.10;99.90
6106;DHT22;3083;51.508;7.966;2024-02-15T15:35:32;14.10;99.90
6106;DHT22;3083;51.508;7.966;2024-02-15T15:38:00;14.10;99.90
6106;DHT22;3083;51.508;7.966;2024-02-15T15:40:28;14.10;99.90
6106;DHT22;3083;51.508;7.966;2024-02-15T15:42:55;14.00;99.90
6106;DHT22;3083;51.508;7.966;2024-02-15T15:45:22;14.00;99.90
6106;DHT22;3083;51.508;7.966;2024-02-15T15:47:50;14.00;99.90
6106;DHT22;3083;51.508;7.966;2024-02-15T15:50:19;13.90;99.90
6106;DHT22;3083;51.508;7.966;2024-02-15T15:52:46;13.90;99.90
6106;DHT22;3083;51.508;7.966;2024-02-15T15:55:13;13.90;99.90
6106;DHT22;3083;51.508;7.966;2024-02-15T15:57:42;13.90;99.90
6106;DHT22;3083;51.508;7.966;2024-02-15T16:00:10;13.90;99.90
6106;DHT22;3083;51.508;7.966;2024-02-15T16:02:39;13.90;99.90
6106;DHT22;3083;51.508;7.966;2024-02-15T16:05:08;13.80;99.90
6106;DHT22;3083;51.508;7.966;2024-02-15T16:07:35;13.80;99.90
6106;DHT22;3083;51.508;7.966;2024-02-15T16:10:04;13.80;99.90
6106;DHT22;3083;51.508;7.966;2024-02-15T16:12:31;13.80;99.90
6106;DHT22;3083;51.508;7.966;2024-02-15T16:15:01;13.80;99.90